Time;durP1;ratioP1;P1;durP2;ratioP2;P2;SDS_P1;SDS_P2;PMS_P1;PMS_P2;Temp;Humidity;BMP_temperature;BMP_pressure;BME280_temperature;BME280_humidity;BME280_pressure;Samples;Min_cycle;Max_cycle;Signal;HPM_P1;HPM_P2
2021/12/17 00:02:31;;;;;;;77.57;33.63;;;8.50;99.90;;;;;;5064152;28;20048;-73
2021/12/17 00:05:02;;;;;;;72.43;34.83;;;8.50;99.90;;;;;;5069713;28;20049;-73
2021/12/17 00:07:30;;;;;;;115.53;40.20;;;8.50;99.90;;;;;;5064582;28;20060;-73
2021/12/17 00:09:58;;;;;;;94.32;36.35;;;8.50;99.90;;;;;;5053693;28;20037;-73
2021/12/17 00:12:26;;;;;;;91.20;37.08;;;8.50;99.90;;;;;;5066483;28;20094;-73
2021/12/17 00:14:52;;;;;;;99.05;37.63;;;8.50;99.90;;;;;;5066219;28;20068;-73
2021/12/17 00:17:25;;;;;;;94.38;38.67;;;8.50;99.90;;;;;;5068753;28;20093;-73
2021/12/17 00:49:30;;;;;;;80.88;35.53;;;8.40;99.90;;;;;;5069426;28;20077;-74
2021/12/17 00:51:59;;;;;;;113.55;38.95;;;8.40;99.90;;;;;;5054265;28;20047;-73
2021/12/17 00:54:37;;;;;;;93.95;35.95;;;8.40;99.90;;;;;;5070561;28;20044;-74
2021/12/17 00:57:38;;;;;;;78.13;34.80;;;8.40;99.90;;;;;;5069943;28;20066;-74
2021/12/17 01:00:09;;;;;;;123.90;41.63;;;8.40;99.90;;;;;;5069845;28;20480;-73
2021/12/17 01:02:37;;;;;;;121.30;40.55;;;8.40;99.90;;;;;;5070549;28;20044;-73
2021/12/17 01:05:08;;;;;;;119.53;39.97;;;8.40;99.90;;;;;;5067664;28;20059;-73
2021/12/17 01:07:36;;;;;;;89.82;35.95;;;8.40;99.90;;;;;;5054641;28;20079;-73
2021/12/17 01:10:06;;;;;;;;;;;8.40;99.90;;;;;;5071543;28;20054;-73
2021/12/17 01:12:31;;;;;;;98.78;34.30;;;8.40;99.90;;;;;;5061886;28;19970;-73
2021/12/17 01:14:57;;;;;;;84.10;32.90;;;8.30;99.90;;;;;;5057474;28;20084;-73
2021/12/17 01:17:25;;;;;;;75.43;32.97;;;8.40;99.90;;;;;;5071667;28;20412;-73
2021/12/17 01:36:28;;;;;;;83.15;34.33;;;8.40;99.90;;;;;;5070788;28;20063;-73
2021/12/17 01:44:22;;;;;;;119.63;41.10;;;8.40;99.90;;;;;;5069987;28;20057;-73
2021/12/17 01:46:51;;;;;;;99.03;35.63;;;8.40;99.90;;;;;;5062634;28;20089;-73
2021/12/17 02:00:08;;;;;;;112.28;36.42;;;8.40;99.90;;;;;;5074240;28;20110;-73
2021/12/17 02:02:41;;;;;;;92.22;34.92;;;8.40;99.90;;;;;;5064344;28;20047;-73
2021/12/17 02:05:08;;;;;;;105.40;37.00;;;8.40;99.90;;;;;;5073961;28;20051;-73
2021/12/17 02:07:34;;;;;;;71.72;29.17;;;8.40;99.90;;;;;;5064403;28;20053;-73
2021/12/17 02:29:53;;;;;;;73.60;29.00;;;8.40;99.90;;;;;;5070530;28;20094;-73
2021/12/17 02:32:20;;;;;;;63.50;26.13;;;8.40;99.90;;;;;;5073523;28;20101;-73
2021/12/17 02:37:33;;;;;;;88.43;28.80;;;8.30;99.90;;;;;;5068521;28;20591;-72
2021/12/17 02:40:19;;;;;;;78.47;29.15;;;8.40;99.90;;;;;;5069115;28;21229;-73
2021/12/17 02:45:32;;;;;;;59.33;28.25;;;8.30;99.90;;;;;;5055485;28;20055;-72
2021/12/17 02:48:00;;;;;;;68.32;27.05;;;8.30;99.90;;;;;;5090388;28;20082;-72
2021/12/17 02:50:26;;;;;;;77.43;29.73;;;8.30;99.90;;;;;;5071694;28;20083;-73
2021/12/17 02:52:54;;;;;;;62.85;26.58;;;8.40;99.90;;;;;;5067418;28;20906;-72
2021/12/17 02:55:21;;;;;;;58.65;27.42;;;8.40;99.90;;;;;;5061689;28;20084;-72
2021/12/17 02:57:47;;;;;;;65.40;26.23;;;8.40;99.90;;;;;;5072098;28;20051;-73
2021/12/17 03:00:13;;;;;;;62.90;27.33;;;8.40;99.90;;;;;;5069234;28;20446;-72
2021/12/17 03:02:40;;;;;;;71.10;29.02;;;8.40;99.90;;;;;;5073242;28;20413;-73
2021/12/17 03:05:08;;;;;;;84.65;29.00;;;8.40;99.90;;;;;;5066939;28;20041;-73
2021/12/17 03:07:41;;;;;;;85.95;29.67;;;8.40;99.90;;;;;;5058011;28;20101;-73
2021/12/17 03:10:10;;;;;;;52.25;25.25;;;8.40;99.90;;;;;;5054680;28;20500;-73
2021/12/17 03:25:50;;;;;;;53.45;24.77;;;8.30;99.90;;;;;;5065163;28;20044;-73
2021/12/17 03:28:16;;;;;;;89.63;31.08;;;8.30;99.90;;;;;;5070050;28;20050;-73
2021/12/17 03:30:42;;;;;;;64.47;24.73;;;8.30;99.90;;;;;;5069209;28;20054;-73
2021/12/17 03:33:08;;;;;;;63.03;26.77;;;8.30;99.90;;;;;;5064937;28;20072;-73
2021/12/17 03:35:34;;;;;;;57.58;25.60;;;8.30;99.90;;;;;;5072013;28;20071;-73
2021/12/17 03:37:59;;;;;;;48.83;22.60;;;8.20;99.90;;;;;;5072581;28;20058;-73
2021/12/17 03:40:26;;;;;;;47.92;22.38;;;8.20;99.90;;;;;;5070850;28;20036;-73
2021/12/17 03:43:00;;;;;;;55.10;23.38;;;8.20;99.90;;;;;;5068830;28;20473;-73
2021/12/17 03:45:26;;;;;;;59.03;24.38;;;8.20;99.90;;;;;;5069451;28;20036;-73
2021/12/17 03:47:52;;;;;;;52.63;24.80;;;8.20;99.90;;;;;;5071880;28;20043;-73
2021/12/17 03:50:18;;;;;;;57.05;24.40;;;8.20;99.90;;;;;;5068477;28;20041;-73
2021/12/17 03:52:44;;;;;;;45.88;22.85;;;8.20;99.90;;;;;;5071440;28;20042;-73
2021/12/17 03:55:09;;;;;;;47.97;22.77;;;8.20;99.90;;;;;;5068295;28;20063;-73
2021/12/17 03:57:36;;;;;;;47.67;22.50;;;8.20;99.90;;;;;;5067174;28;20039;-73
2021/12/17 04:00:05;;;;;;;48.58;24.35;;;8.20;99.90;;;;;;5064867;28;20040;-73
2021/12/17 04:02:31;;;;;;;44.42;21.83;;;8.20;99.90;;;;;;5077530;28;20042;-73
2021/12/17 04:04:57;;;;;;;63.95;23.80;;;8.20;99.90;;;;;;5069265;28;20045;-73
2021/12/17 04:07:23;;;;;;;51.88;26.13;;;8.20;99.90;;;;;;5075912;28;20048;-73
2021/12/17 04:09:48;;;;;;;51.50;25.02;;;8.20;99.90;;;;;;5071006;28;20531;-73
2021/12/17 04:12:17;;;;;;;44.92;23.73;;;8.20;99.90;;;;;;5069747;28;20040;-73
2021/12/17 04:14:46;;;;;;;46.38;23.75;;;8.20;99.90;;;;;;5060410;28;20408;-73
2021/12/17 04:17:15;;;;;;;46.40;23.20;;;8.20;99.90;;;;;;5070689;28;20920;-73
2021/12/17 04:19:40;;;;;;;51.65;22.25;;;8.10;99.90;;;;;;5070883;28;20131;-73
2021/12/17 04:22:07;;;;;;;57.28;25.00;;;8.20;99.90;;;;;;5066698;28;20135;-73
2021/12/17 04:24:33;;;;;;;49.03;24.33;;;8.20;99.90;;;;;;5067536;28;20044;-73
2021/12/17 04:26:58;;;;;;;55.15;24.40;;;8.20;99.90;;;;;;5062310;28;20044;-73
2021/12/17 04:29:25;;;;;;;50.65;23.90;;;8.20;99.90;;;;;;5086919;28;20056;-73
2021/12/17 04:31:55;;;;;;;48.42;22.17;;;8.10;99.90;;;;;;5070966;28;20122;-73
2021/12/17 04:34:22;;;;;;;52.83;21.70;;;8.10;99.90;;;;;;5068279;28;20055;-73
2021/12/17 04:36:51;;;;;;;45.13;19.90;;;8.10;99.90;;;;;;5069396;28;20044;-73
2021/12/17 04:39:18;;;;;;;56.67;20.25;;;8.00;99.90;;;;;;5058854;28;20048;-73
2021/12/17 04:47:00;;;;;;;33.00;14.95;;;8.00;99.90;;;;;;5069178;28;20469;-73
2021/12/17 04:57:41;;;;;;;28.23;14.05;;;8.00;99.90;;;;;;5069314;28;20578;-73
2021/12/17 05:00:12;;;;;;;25.35;13.70;;;8.00;99.90;;;;;;5067931;28;20060;-73
2021/12/17 05:02:43;;;;;;;36.50;16.02;;;8.00;99.90;;;;;;5054379;28;20084;-73
2021/12/17 05:05:11;;;;;;;32.25;15.85;;;8.10;99.90;;;;;;5063939;28;20485;-73
2021/12/17 05:07:42;;;;;;;29.42;12.95;;;8.00;99.90;;;;;;5061694;28;20047;-73
2021/12/17 05:10:19;;;;;;;33.45;14.73;;;8.00;99.90;;;;;;5068827;28;20098;-73
2021/12/17 05:18:25;;;;;;;28.92;12.38;;;8.00;99.90;;;;;;5068537;28;20056;-73
2021/12/17 05:20:57;;;;;;;25.60;13.15;;;8.00;99.90;;;;;;5065864;28;20162;-73
2021/12/17 05:23:30;;;;;;;23.70;12.25;;;8.00;99.90;;;;;;5047394;28;20485;-73
2021/12/17 05:25:57;;;;;;;34.38;14.55;;;8.00;99.90;;;;;;5057301;28;20053;-73
2021/12/17 05:28:23;;;;;;;23.05;12.25;;;8.00;99.90;;;;;;5071208;28;20090;-73
2021/12/17 05:30:50;;;;;;;25.08;11.50;;;8.00;99.90;;;;;;5060148;28;20063;-73
2021/12/17 05:33:18;;;;;;;28.67;12.68;;;8.00;99.90;;;;;;5064108;28;20040;-73
2021/12/17 05:35:44;;;;;;;28.88;13.18;;;8.00;99.90;;;;;;5062886;28;20060;-73
2021/12/17 05:38:10;;;;;;;29.85;14.20;;;8.00;99.90;;;;;;5065798;28;20048;-73
2021/12/17 05:40:37;;;;;;;23.15;12.63;;;8.00;99.90;;;;;;5062066;28;20075;-73
2021/12/17 05:43:05;;;;;;;25.40;13.73;;;8.00;99.90;;;;;;5064400;28;20079;-73
2021/12/17 05:45:47;;;;;;;30.88;14.52;;;8.00;99.90;;;;;;5064136;28;20040;-74
2021/12/17 05:48:13;;;;;;;23.80;13.05;;;8.00;99.90;;;;;;5065391;28;20049;-73
2021/12/17 05:50:41;;;;;;;31.15;14.38;;;8.00;99.90;;;;;;5068914;28;20048;-73
2021/12/17 05:53:07;;;;;;;;;;;8.00;99.90;;;;;;5070179;28;20186;-73
2021/12/17 05:55:34;;;;;;;26.17;13.05;;;8.00;99.90;;;;;;5066745;28;20011;-74
2021/12/17 05:58:01;;;;;;;29.42;13.65;;;7.90;99.90;;;;;;5073647;28;20413;-73
2021/12/17 06:00:30;;;;;;;30.85;13.82;;;7.90;99.90;;;;;;5065290;28;20111;-73
2021/12/17 06:03:00;;;;;;;35.13;15.00;;;7.90;99.90;;;;;;5068755;28;20064;-73
2021/12/17 06:05:27;;;;;;;31.20;15.00;;;7.90;99.90;;;;;;5067233;28;20045;-73
2021/12/17 06:07:52;;;;;;;42.25;16.45;;;7.90;99.90;;;;;;5068170;28;20734;-73
2021/12/17 06:10:19;;;;;;;31.23;15.50;;;7.90;99.90;;;;;;5064321;28;20052;-73
2021/12/17 06:12:45;;;;;;;44.38;17.70;;;7.90;99.90;;;;;;5056388;28;20567;-73
2021/12/17 06:15:13;;;;;;;46.70;19.25;;;7.90;99.90;;;;;;5069728;28;20398;-73
2021/12/17 06:17:39;;;;;;;36.78;15.95;;;7.90;99.90;;;;;;5069779;28;20052;-73
2021/12/17 06:20:07;;;;;;;37.80;15.38;;;7.90;99.90;;;;;;5067440;28;20145;-73
2021/12/17 06:22:34;;;;;;;32.03;14.77;;;7.90;99.90;;;;;;5064642;28;20056;-73
2021/12/17 06:24:59;;;;;;;25.20;12.60;;;7.90;99.90;;;;;;5063659;28;20051;-74
2021/12/17 06:27:27;;;;;;;37.70;15.13;;;7.90;99.90;;;;;;5061564;28;20060;-74
2021/12/17 06:29:53;;;;;;;28.58;13.57;;;7.90;99.90;;;;;;5066828;28;20063;-74
2021/12/17 06:32:19;;;;;;;28.70;14.02;;;7.90;99.90;;;;;;5067226;28;20036;-74
2021/12/17 06:34:46;;;;;;;37.58;16.25;;;7.90;99.90;;;;;;5063607;28;20067;-74
2021/12/17 06:37:12;;;;;;;30.55;14.25;;;7.90;99.90;;;;;;5065455;28;20089;-73
2021/12/17 06:39:39;;;;;;;28.52;13.35;;;7.90;99.90;;;;;;5065571;28;20102;-74
2021/12/17 06:42:05;;;;;;;25.35;12.65;;;7.90;99.90;;;;;;5066563;28;20035;-74
2021/12/17 06:44:32;;;;;;;23.85;11.82;;;7.80;99.90;;;;;;5063030;28;20121;-74
2021/12/17 06:47:09;;;;;;;23.52;11.68;;;7.90;99.90;;;;;;5063352;28;20729;-74
2021/12/17 07:11:16;;;;;;;23.25;12.82;;;7.90;99.90;;;;;;5062637;28;21302;-74
2021/12/17 07:40:09;;;;;;;36.95;17.25;;;7.80;99.90;;;;;;5063443;28;20048;-74
2021/12/17 07:42:35;;;;;;;36.97;18.17;;;7.90;99.90;;;;;;5063909;28;20055;-74
2021/12/17 07:45:01;;;;;;;33.85;16.75;;;7.90;99.90;;;;;;5064288;28;20052;-74
2021/12/17 07:47:27;;;;;;;32.05;15.93;;;7.90;99.90;;;;;;5064967;28;20051;-74
2021/12/17 07:49:53;;;;;;;31.58;17.08;;;7.90;99.90;;;;;;5062053;28;20377;-74
2021/12/17 07:52:20;;;;;;;30.50;17.17;;;7.90;99.90;;;;;;5064159;28;20548;-73
2021/12/17 07:54:46;;;;;;;32.67;16.38;;;7.90;99.90;;;;;;5063327;28;20786;-74
2021/12/17 07:57:11;;;;;;;36.17;17.45;;;8.00;99.90;;;;;;5065144;28;20050;-74
2021/12/17 07:59:37;;;;;;;41.92;18.35;;;8.00;99.90;;;;;;5063256;28;20048;-74
2021/12/17 08:02:03;;;;;;;42.83;19.23;;;8.00;99.90;;;;;;5061133;28;20396;-74
2021/12/17 08:04:29;;;;;;;34.67;16.23;;;8.00;99.90;;;;;;5062924;28;20683;-74
2021/12/17 08:06:54;;;;;;;30.13;17.02;;;8.00;99.90;;;;;;5062548;28;20040;-74
2021/12/17 08:09:20;;;;;;;34.53;17.83;;;8.00;99.90;;;;;;5064639;28;20135;-74
2021/12/17 08:11:54;;;;;;;35.47;18.27;;;8.00;99.90;;;;;;5065718;28;20076;-73
2021/12/17 08:14:20;;;;;;;38.28;17.88;;;8.00;99.90;;;;;;5062983;28;20059;-74
2021/12/17 08:16:57;;;;;;;44.88;19.88;;;8.00;99.90;;;;;;5063175;28;20052;-74
2021/12/17 08:32:07;;;;;;;52.28;22.20;;;8.10;99.90;;;;;;5061642;28;20137;-74
2021/12/17 08:34:33;;;;;;;44.92;20.55;;;8.20;99.90;;;;;;5063542;28;20048;-74
2021/12/17 08:36:58;;;;;;;50.17;21.85;;;8.20;99.90;;;;;;5062983;28;20386;-74
2021/12/17 08:39:26;;;;;;;41.92;19.40;;;8.20;99.90;;;;;;5062297;28;20044;-74
2021/12/17 08:41:54;;;;;;;43.58;23.15;;;8.20;99.90;;;;;;5063532;28;20067;-74
2021/12/17 08:44:21;;;;;;;;;;;8.20;99.90;;;;;;5064016;28;20509;-74
2021/12/17 08:46:46;;;;;;;38.20;21.13;;;8.20;99.90;;;;;;5061894;28;20018;-74
2021/12/17 08:49:14;;;;;;;41.85;21.83;;;8.20;99.90;;;;;;5062284;28;20760;-74
2021/12/17 08:51:41;;;;;;;43.85;23.08;;;8.30;99.90;;;;;;5063042;28;20091;-74
2021/12/17 08:54:08;;;;;;;46.35;22.08;;;8.30;99.90;;;;;;5062247;28;20047;-74
2021/12/17 08:56:37;;;;;;;44.88;22.33;;;8.30;99.90;;;;;;5046556;28;20058;-74
2021/12/17 08:59:03;;;;;;;;;;;8.40;99.90;;;;;;5061847;28;20036;-74
2021/12/17 09:01:29;;;;;;;37.67;20.77;;;8.30;99.90;;;;;;5062249;28;19927;-74
2021/12/17 09:03:55;;;;;;;39.83;22.10;;;8.40;99.90;;;;;;5062609;28;21174;-74
2021/12/17 09:06:26;;;;;;;45.95;22.58;;;8.40;99.90;;;;;;5061514;28;20053;-74
2021/12/17 09:08:55;;;;;;;45.80;22.45;;;8.40;99.90;;;;;;5060986;28;20505;-74
2021/12/17 09:11:26;;;;;;;39.92;21.63;;;8.50;99.90;;;;;;5063304;28;20059;-74
2021/12/17 09:13:54;;;;;;;39.17;21.63;;;8.50;99.90;;;;;;5082401;28;20047;-74
2021/12/17 09:16:20;;;;;;;42.85;21.85;;;8.50;99.90;;;;;;5062067;28;20059;-74
2021/12/17 09:18:52;;;;;;;45.63;22.63;;;8.50;99.90;;;;;;5062337;28;20056;-74
2021/12/17 09:21:18;;;;;;;40.85;22.98;;;8.60;99.90;;;;;;5062576;28;20153;-74
2021/12/17 09:23:45;;;;;;;43.05;22.67;;;8.60;99.90;;;;;;5062971;28;20044;-74
2021/12/17 09:26:11;;;;;;;44.22;24.00;;;8.60;99.90;;;;;;5061044;28;20055;-75
2021/12/17 09:28:37;;;;;;;42.53;21.77;;;8.60;99.90;;;;;;5061886;28;20051;-75
2021/12/17 09:31:05;;;;;;;43.33;22.40;;;8.70;99.90;;;;;;5062679;28;20048;-74
2021/12/17 09:33:33;;;;;;;37.10;21.40;;;8.70;99.90;;;;;;5060515;28;20405;-75
2021/12/17 09:35:59;;;;;;;47.58;23.40;;;8.70;99.90;;;;;;5059172;28;21224;-75
2021/12/17 09:38:24;;;;;;;40.17;22.45;;;8.70;99.90;;;;;;5061097;28;20040;-75
2021/12/17 09:40:51;;;;;;;43.88;23.65;;;8.80;99.90;;;;;;5059028;28;20129;-75
2021/12/17 09:43:16;;;;;;;49.53;24.38;;;8.80;99.90;;;;;;5061937;28;20082;-75
2021/12/17 09:45:42;;;;;;;38.38;20.85;;;8.80;99.90;;;;;;5059771;28;20127;-75
2021/12/17 09:48:08;;;;;;;46.30;23.00;;;8.90;99.90;;;;;;5061270;28;20070;-75
2021/12/17 09:50:34;;;;;;;44.58;21.83;;;8.90;99.90;;;;;;5061645;28;20043;-74
2021/12/17 09:53:00;;;;;;;36.97;21.73;;;8.90;99.90;;;;;;5062738;28;20036;-74
2021/12/17 09:55:26;;;;;;;38.35;21.42;;;8.90;99.90;;;;;;5062143;28;20052;-74
2021/12/17 09:57:53;;;;;;;36.60;21.88;;;9.00;99.90;;;;;;5062271;28;20653;-75
2021/12/17 10:00:24;;;;;;;41.42;21.88;;;9.00;99.90;;;;;;5061703;28;20044;-75
2021/12/17 10:02:51;;;;;;;26.17;17.27;;;9.00;99.90;;;;;;5078600;28;20046;-75
2021/12/17 10:05:20;;;;;;;31.48;18.88;;;9.00;99.90;;;;;;5063959;28;20052;-74
2021/12/17 10:07:51;;;;;;;39.80;21.83;;;9.10;99.90;;;;;;5062057;28;20048;-74
2021/12/17 10:10:17;;;;;;;34.92;19.30;;;9.10;99.90;;;;;;5062687;28;20047;-74
2021/12/17 10:12:44;;;;;;;33.95;19.92;;;9.10;99.90;;;;;;5065129;28;20040;-74
2021/12/17 10:15:09;;;;;;;31.42;17.83;;;9.10;99.90;;;;;;5065814;28;20048;-74
2021/12/17 10:17:47;;;;;;;34.88;19.67;;;9.10;99.90;;;;;;5049245;28;20047;-74
2021/12/17 10:20:12;;;;;;;33.63;20.20;;;9.10;99.90;;;;;;5065801;28;20476;-74
2021/12/17 10:22:43;;;;;;;30.08;19.30;;;9.10;99.90;;;;;;5065115;28;20080;-74
2021/12/17 10:25:10;;;;;;;35.22;18.45;;;9.10;99.90;;;;;;5064535;28;20121;-74
2021/12/17 10:27:38;;;;;;;32.47;20.75;;;9.10;99.90;;;;;;5065688;28;20087;-74
2021/12/17 10:30:18;;;;;;;28.55;18.30;;;9.10;99.90;;;;;;5048424;28;20052;-74
2021/12/17 10:32:50;;;;;;;31.92;18.73;;;9.10;99.90;;;;;;5065557;28;20052;-75
2021/12/17 10:35:20;;;;;;;29.98;18.63;;;9.10;99.90;;;;;;5046116;28;20062;-74
2021/12/17 10:37:55;;;;;;;35.38;19.67;;;9.10;99.90;;;;;;5064272;28;20093;-74
2021/12/17 10:40:33;;;;;;;37.10;18.58;;;9.10;99.90;;;;;;5064893;28;20036;-74
2021/12/17 10:46:23;;;;;;;32.72;20.30;;;9.10;99.90;;;;;;5052494;28;20125;-74
2021/12/17 10:48:55;;;;;;;35.10;20.42;;;9.20;99.90;;;;;;5064961;28;20035;-74
2021/12/17 10:51:43;;;;;;;34.75;19.77;;;9.10;99.90;;;;;;5064686;28;20051;-74
2021/12/17 10:54:10;;;;;;;38.75;19.98;;;9.20;99.90;;;;;;5064034;28;20052;-74
2021/12/17 10:56:39;;;;;;;34.13;19.00;;;9.10;99.90;;;;;;5065877;28;20161;-74
2021/12/17 10:59:22;;;;;;;40.67;21.40;;;9.20;99.90;;;;;;5065286;28;20056;-74
2021/12/17 11:01:54;;;;;;;33.42;20.52;;;9.20;99.90;;;;;;5063589;28;20079;-74
2021/12/17 11:04:20;;;;;;;47.90;21.90;;;9.20;99.90;;;;;;5064368;28;20127;-74
2021/12/17 11:06:59;;;;;;;32.17;20.40;;;9.20;99.90;;;;;;5063207;28;20054;-75
2021/12/17 11:09:34;;;;;;;37.65;21.42;;;9.30;99.90;;;;;;5063494;28;20497;-75
2021/12/17 11:12:21;;;;;;;37.45;21.40;;;9.30;99.90;;;;;;5060660;28;20044;-75
2021/12/17 11:14:47;;;;;;;38.15;22.13;;;9.30;99.90;;;;;;5052533;28;20059;-75
2021/12/17 11:17:15;;;;;;;43.10;22.33;;;9.30;99.90;;;;;;5062470;28;20048;-75
2021/12/17 11:19:41;;;;;;;37.80;20.63;;;9.30;99.90;;;;;;5061793;28;20052;-74
2021/12/17 11:22:07;;;;;;;39.15;20.75;;;9.30;99.90;;;;;;5063728;28;20135;-74
2021/12/17 11:24:36;;;;;;;34.60;18.95;;;9.40;99.90;;;;;;5063356;28;20517;-74
2021/12/17 11:27:04;;;;;;;38.40;19.88;;;9.40;99.90;;;;;;5063328;28;20056;-74
2021/12/17 11:29:31;;;;;;;34.08;20.50;;;9.40;99.90;;;;;;5064651;28;20184;-74
2021/12/17 11:31:59;;;;;;;37.45;20.55;;;9.40;99.90;;;;;;5062662;28;20055;-74
2021/12/17 11:34:27;;;;;;;35.08;20.02;;;9.50;99.90;;;;;;5063825;28;20058;-74
2021/12/17 11:36:55;;;;;;;31.63;20.90;;;9.50;99.90;;;;;;5058227;28;20814;-74
2021/12/17 11:39:30;;;;;;;34.75;18.42;;;9.60;99.90;;;;;;5072871;28;20052;-74
2021/12/17 11:42:40;;;;;;;27.40;17.30;;;9.60;99.90;;;;;;5055213;28;20048;-74
2021/12/17 11:45:23;;;;;;;43.25;18.60;;;9.70;99.90;;;;;;5054694;28;20072;-74
2021/12/17 11:47:49;;;;;;;36.80;18.48;;;9.70;99.90;;;;;;5056651;28;20059;-74
2021/12/17 11:50:16;;;;;;;35.85;19.10;;;9.70;99.90;;;;;;5057270;28;20052;-74
2021/12/17 11:52:48;;;;;;;39.97;19.33;;;9.70;99.90;;;;;;5057017;28;20052;-74
2021/12/17 11:55:35;;;;;;;34.17;18.17;;;9.70;99.90;;;;;;5057484;28;20101;-73
2021/12/17 11:58:10;;;;;;;32.95;16.55;;;9.70;99.90;;;;;;5074139;28;20404;-73
2021/12/17 12:00:41;;;;;;;43.10;21.48;;;9.60;99.90;;;;;;5055783;28;20059;-73
2021/12/17 12:03:24;;;;;;;37.90;20.23;;;9.60;99.90;;;;;;5058037;28;20040;-73
2021/12/17 12:05:52;;;;;;;34.47;20.15;;;9.60;99.90;;;;;;5057984;28;20040;-73
2021/12/17 12:08:49;;;;;;;29.50;18.60;;;9.60;99.90;;;;;;5057328;28;20052;-73
2021/12/17 12:11:27;;;;;;;34.65;19.48;;;9.60;99.90;;;;;;5057521;28;20044;-73
2021/12/17 12:13:54;;;;;;;45.55;21.42;;;9.60;99.90;;;;;;5041117;28;20048;-73
2021/12/17 12:16:25;;;;;;;46.97;20.65;;;9.50;99.90;;;;;;5057028;28;20125;-73
2021/12/17 12:19:05;;;;;;;32.13;18.40;;;9.50;99.90;;;;;;5060118;28;20044;-73
2021/12/17 12:21:38;;;;;;;36.63;18.90;;;9.50;99.90;;;;;;5059182;28;20055;-73
2021/12/17 12:24:15;;;;;;;28.55;16.33;;;9.50;99.90;;;;;;5062549;28;20088;-73
2021/12/17 12:26:45;;;;;;;40.88;18.40;;;9.50;99.90;;;;;;5080426;28;20054;-73
2021/12/17 12:29:21;;;;;;;33.10;17.38;;;9.40;99.90;;;;;;5064574;28;20131;-73
2021/12/17 12:31:51;;;;;;;32.30;17.42;;;9.40;99.90;;;;;;5046052;28;20117;-73
2021/12/17 12:34:27;;;;;;;31.55;16.52;;;9.40;99.90;;;;;;5061266;28;20560;-73
2021/12/17 12:37:19;;;;;;;27.40;15.60;;;9.40;99.90;;;;;;5062830;28;20117;-73
2021/12/17 12:39:54;;;;;;;28.42;13.75;;;9.40;99.90;;;;;;5063450;28;20040;-73
2021/12/17 12:42:29;;;;;;;28.30;14.63;;;9.40;99.90;;;;;;5062660;28;20078;-73
2021/12/17 12:44:58;;;;;;;24.67;13.55;;;9.50;99.90;;;;;;5063576;28;20509;-73
2021/12/17 12:47:24;;;;;;;17.17;11.52;;;9.50;99.90;;;;;;5063714;28;20322;-73
2021/12/17 12:50:01;;;;;;;14.13;10.52;;;9.60;99.90;;;;;;5062465;28;20139;-73
2021/12/17 12:52:33;;;;;;;18.13;11.00;;;9.60;99.90;;;;;;5062410;28;20134;-73
2021/12/17 12:55:04;;;;;;;17.67;10.57;;;9.60;99.90;;;;;;5060570;28;20093;-73
2021/12/17 12:57:36;;;;;;;17.60;10.27;;;9.60;99.90;;;;;;5063126;28;20641;-72
2021/12/17 13:00:11;;;;;;;14.90;9.57;;;9.60;99.90;;;;;;5080588;28;20513;-73
2021/12/17 13:02:38;;;;;;;17.23;10.45;;;9.60;99.90;;;;;;5063671;28;20127;-73
2021/12/17 13:05:06;;;;;;;17.00;10.77;;;9.60;99.90;;;;;;5063400;28;20062;-73
2021/12/17 13:07:37;;;;;;;15.55;9.65;;;9.60;99.90;;;;;;5062407;28;20767;-73
2021/12/17 13:10:14;;;;;;;17.70;10.02;;;9.60;99.90;;;;;;5061832;28;20044;-73
2021/12/17 13:12:46;;;;;;;13.93;9.38;;;9.60;99.90;;;;;;5064345;28;20050;-74
2021/12/17 13:23:19;;;;;;;13.73;7.57;;;9.80;99.90;;;;;;5062800;28;20187;-73
2021/12/17 13:25:44;;;;;;;9.13;7.05;;;9.70;99.90;;;;;;5062831;28;20067;-73
2021/12/17 13:28:10;;;;;;;10.25;6.60;;;9.70;99.90;;;;;;5063807;28;20382;-73
2021/12/17 13:30:36;;;;;;;8.35;6.32;;;9.70;99.90;;;;;;5062925;28;20047;-73
2021/12/17 13:33:02;;;;;;;6.03;4.47;;;9.60;99.90;;;;;;5062465;28;20048;-73
2021/12/17 13:35:33;;;;;;;5.95;4.70;;;9.60;99.90;;;;;;5061929;28;20044;-72
2021/12/17 13:38:01;;;;;;;6.30;3.78;;;9.60;99.90;;;;;;5062600;28;20075;-73
2021/12/17 13:40:27;;;;;;;10.32;4.70;;;9.60;99.90;;;;;;5063042;28;20053;-73
2021/12/17 13:42:55;;;;;;;7.50;4.25;;;9.50;99.90;;;;;;5063528;28;20048;-73
2021/12/17 13:45:21;;;;;;;6.50;4.57;;;9.50;99.90;;;;;;5063881;28;20064;-73
2021/12/17 13:47:51;;;;;;;7.93;5.57;;;9.60;99.90;;;;;;5065095;28;20056;-73
2021/12/17 13:50:44;;;;;;;9.45;4.72;;;9.60;99.90;;;;;;5064955;28;20043;-73
2021/12/17 13:53:15;;;;;;;6.85;4.50;;;9.50;99.90;;;;;;5066212;28;20048;-73
2021/12/17 13:55:46;;;;;;;6.28;4.32;;;9.50;99.90;;;;;;5066382;28;20060;-73
2021/12/17 13:58:17;;;;;;;6.88;3.95;;;9.50;99.90;;;;;;5065571;28;20040;-73
2021/12/17 14:00:46;;;;;;;8.48;3.95;;;9.50;99.90;;;;;;5065477;28;20050;-73
2021/12/17 14:03:16;;;;;;;6.10;4.32;;;9.50;99.90;;;;;;5066576;28;20059;-73
2021/12/17 14:05:47;;;;;;;8.15;4.65;;;9.50;99.90;;;;;;5066352;28;20097;-73
2021/12/17 14:08:17;;;;;;;10.85;4.18;;;9.50;99.90;;;;;;5065574;28;20048;-74
2021/12/17 14:10:43;;;;;;;5.82;3.88;;;9.50;99.90;;;;;;5064155;28;20453;-73
2021/12/17 14:13:23;;;;;;;6.72;3.63;;;9.50;99.90;;;;;;5062763;28;20048;-74
2021/12/17 14:15:50;;;;;;;6.13;4.03;;;9.50;99.90;;;;;;5063965;28;20048;-74
2021/12/17 14:18:18;;;;;;;5.47;4.13;;;9.50;99.90;;;;;;5065751;28;20090;-74
2021/12/17 14:20:50;;;;;;;8.30;4.88;;;9.50;99.90;;;;;;5065130;28;20145;-73
2021/12/17 14:23:19;;;;;;;4.50;3.55;;;9.50;99.90;;;;;;5066291;28;20950;-73
2021/12/17 14:25:48;;;;;;;7.55;5.25;;;9.50;99.90;;;;;;5081730;28;20052;-73
2021/12/17 14:28:26;;;;;;;8.68;5.30;;;9.50;99.90;;;;;;5066857;28;20051;-73
2021/12/17 14:31:00;;;;;;;8.63;5.38;;;9.50;99.90;;;;;;5066554;28;20044;-73
2021/12/17 14:33:32;;;;;;;8.13;5.50;;;9.50;99.90;;;;;;5062982;28;20074;-73
2021/12/17 14:36:14;;;;;;;7.72;5.05;;;9.50;99.90;;;;;;5065289;28;20564;-73
2021/12/17 14:38:52;;;;;;;9.40;5.95;;;9.40;99.90;;;;;;5065117;28;21309;-73
2021/12/17 14:41:44;;;;;;;;;;;9.40;99.90;;;;;;5067279;28;20247;-73
2021/12/17 14:44:30;;;;;;;13.13;8.65;;;9.40;99.90;;;;;;5066831;28;20087;-74
2021/12/17 14:47:15;;;;;;;13.55;9.00;;;9.30;99.90;;;;;;5066712;28;20044;-73
2021/12/17 15:05:47;;;;;;;14.25;9.40;;;9.20;99.90;;;;;;5066061;28;20505;-74
2021/12/17 15:08:13;;;;;;;16.10;9.32;;;9.20;99.90;;;;;;5067073;28;20105;-73
2021/12/17 15:10:39;;;;;;;12.82;9.43;;;9.30;99.90;;;;;;5064696;28;20051;-74
2021/12/17 15:13:06;;;;;;;14.63;9.13;;;9.20;99.90;;;;;;5062943;28;20427;-74
2021/12/17 15:15:37;;;;;;;16.05;9.40;;;9.30;99.90;;;;;;5063122;28;20056;-74
2021/12/17 15:18:14;;;;;;;17.45;9.18;;;9.20;99.90;;;;;;5062621;28;21205;-74
2021/12/17 15:20:45;;;;;;;14.85;10.57;;;9.20;99.90;;;;;;5065395;28;20048;-74
2021/12/17 15:23:12;;;;;;;15.45;10.00;;;9.20;99.90;;;;;;5065537;28;20044;-74
2021/12/17 15:25:39;;;;;;;13.70;9.38;;;9.20;99.90;;;;;;5064760;28;20058;-75
2021/12/17 15:28:07;;;;;;;15.80;10.65;;;9.20;99.90;;;;;;5065110;28;20148;-75
2021/12/17 15:30:38;;;;;;;13.88;10.40;;;9.20;99.90;;;;;;5066123;28;20055;-74
2021/12/17 15:33:04;;;;;;;15.65;10.10;;;9.20;99.90;;;;;;5064584;28;20059;-74
2021/12/17 15:35:30;;;;;;;14.82;9.98;;;9.10;99.90;;;;;;5063188;28;20083;-74
2021/12/17 15:37:57;;;;;;;15.73;10.70;;;9.20;99.90;;;;;;5064648;28;20133;-74
2021/12/17 15:40:26;;;;;;;16.83;10.38;;;9.20;99.90;;;;;;5064321;28;20048;-74
2021/12/17 15:42:54;;;;;;;18.65;10.73;;;9.10;99.90;;;;;;5064704;28;20103;-75
2021/12/17 15:45:20;;;;;;;20.08;11.32;;;9.10;99.90;;;;;;5064304;28;20418;-74
2021/12/17 15:47:46;;;;;;;16.88;10.68;;;9.10;99.90;;;;;;5048942;28;20041;-74
2021/12/17 15:50:14;;;;;;;13.35;10.43;;;9.10;99.90;;;;;;5065156;28;20052;-74
2021/12/17 15:52:46;;;;;;;15.60;9.70;;;9.10;99.90;;;;;;5064868;28;20556;-74
2021/12/17 15:55:15;;;;;;;17.50;12.38;;;9.10;99.90;;;;;;5064571;28;20060;-74
2021/12/17 15:57:41;;;;;;;14.93;10.77;;;9.10;99.90;;;;;;5063826;28;20055;-74
2021/12/17 16:00:08;;;;;;;18.08;11.88;;;9.10;99.90;;;;;;5062274;28;20051;-74
2021/12/17 16:02:35;;;;;;;18.27;11.13;;;9.10;99.90;;;;;;5064968;28;20048;-74
2021/12/17 16:05:02;;;;;;;21.13;12.70;;;9.10;99.90;;;;;;5062631;28;20054;-74
2021/12/17 16:07:28;;;;;;;15.18;11.73;;;9.10;99.90;;;;;;5063588;28;20306;-73
2021/12/17 16:23:06;;;;;;;19.52;12.20;;;9.10;99.90;;;;;;5064965;28;20122;-74
2021/12/17 16:25:31;;;;;;;17.17;11.82;;;9.10;99.90;;;;;;5064210;28;20147;-73
2021/12/17 16:27:57;;;;;;;18.02;12.00;;;9.10;99.90;;;;;;5063991;28;20604;-73
2021/12/17 16:30:23;;;;;;;24.30;12.38;;;9.00;99.90;;;;;;5064770;28;20127;-73
2021/12/17 16:32:50;;;;;;;20.38;12.95;;;9.10;99.90;;;;;;5060958;28;20489;-74
2021/12/17 16:35:18;;;;;;;19.77;12.77;;;9.10;99.90;;;;;;5063854;28;20874;-74